createdAt,value
2023-02-12T00:00:08.735Z,10.34
2023-02-12T00:02:36.705Z,10.33
2023-02-12T00:05:04.757Z,10.34
2023-02-12T00:07:32.669Z,10.34
2023-02-12T00:10:00.587Z,10.36
2023-02-12T00:12:28.648Z,10.31
2023-02-12T00:14:56.531Z,10.31
2023-02-12T00:17:25.884Z,10.28
2023-02-12T00:19:53.809Z,10.23
2023-02-12T00:22:21.707Z,10.21
2023-02-12T00:24:49.581Z,10.17
2023-02-12T00:27:17.511Z,10.18
2023-02-12T00:29:45.363Z,10.15
2023-02-12T00:32:14.303Z,10.12
2023-02-12T00:34:43.579Z,10.09
2023-02-12T00:37:11.465Z,10.12
2023-02-12T00:39:39.341Z,10.14
2023-02-12T00:42:07.335Z,10.16
2023-02-12T00:44:35.459Z,10.16
2023-02-12T00:47:03.397Z,10.16
2023-02-12T00:49:34.117Z,10.15
2023-02-12T00:52:03.604Z,10.11
2023-02-12T00:54:31.603Z,10.05
2023-02-12T00:56:59.530Z,10.00
2023-02-12T00:59:27.458Z,9.90
2023-02-12T01:01:55.764Z,9.79
2023-02-12T01:04:23.852Z,9.66
2023-02-12T01:06:51.744Z,9.53
2023-02-12T01:09:21.063Z,9.43
2023-02-12T01:11:48.967Z,9.40
2023-02-12T01:14:16.860Z,9.33
2023-02-12T01:16:44.751Z,9.25
2023-02-12T01:19:12.781Z,9.23
2023-02-12T01:21:40.697Z,9.19
2023-02-12T01:24:08.700Z,9.14
2023-02-12T01:26:38.016Z,9.10
2023-02-12T01:29:07.823Z,9.08
2023-02-12T01:31:37.745Z,9.05
2023-02-12T01:34:06.487Z,8.98
2023-02-12T01:36:34.367Z,8.88
2023-02-12T01:39:03.684Z,8.85
2023-02-12T01:41:32.707Z,8.82
2023-02-12T01:44:18.186Z,8.84
2023-02-12T01:46:46.524Z,8.83
2023-02-12T01:49:16.361Z,8.69
2023-02-12T01:51:44.244Z,8.77
2023-02-12T01:54:12.883Z,8.75
2023-02-12T01:56:40.823Z,8.71
2023-02-12T01:59:08.702Z,8.71
2023-02-12T02:01:37.992Z,8.69
2023-02-12T02:04:07.646Z,8.66
2023-02-12T02:06:36.554Z,8.64
2023-02-12T02:09:04.927Z,8.63
2023-02-12T02:11:49.338Z,8.62
2023-02-12T02:14:35.416Z,8.62
2023-02-12T02:17:24.807Z,8.59
2023-02-12T02:20:12.507Z,8.61
2023-02-12T02:22:41.714Z,8.56
2023-02-12T02:25:36.910Z,8.52
2023-02-12T02:28:13.651Z,8.49
2023-02-12T02:30:45.557Z,8.47
2023-02-12T02:33:27.012Z,8.37
2023-02-12T02:35:57.108Z,8.41
2023-02-12T02:38:28.677Z,8.41
2023-02-12T02:40:59.714Z,8.40
2023-02-12T02:43:29.703Z,8.36
2023-02-12T02:46:01.044Z,8.36
2023-02-12T02:48:30.699Z,8.34
2023-02-12T02:51:00.358Z,8.22
2023-02-12T02:53:29.508Z,8.33
2023-02-12T02:55:58.239Z,8.33
2023-02-12T02:58:27.963Z,8.33
2023-02-12T03:00:58.651Z,8.31
2023-02-12T03:03:28.552Z,8.29
2023-02-12T03:05:57.778Z,8.27
2023-02-12T03:08:27.263Z,8.28
2023-02-12T03:10:56.371Z,8.27
2023-02-12T03:13:26.050Z,8.28
2023-02-12T03:15:55.644Z,8.27
2023-02-12T03:18:26.624Z,8.25
2023-02-12T03:20:56.726Z,8.24
2023-02-12T03:23:25.831Z,8.22
2023-02-12T03:25:57.033Z,8.21
2023-02-12T03:28:28.191Z,8.19
2023-02-12T03:30:59.761Z,8.20
2023-02-12T03:33:31.581Z,8.16
2023-02-12T03:36:03.310Z,8.20
2023-02-12T03:38:37.354Z,8.19
2023-02-12T03:41:07.566Z,8.19
2023-02-12T03:43:39.244Z,8.16
2023-02-12T03:46:09.684Z,8.14
2023-02-12T03:48:42.914Z,8.11
2023-02-12T03:51:14.898Z,8.11
2023-02-12T03:53:44.247Z,8.09
2023-02-12T03:56:14.018Z,8.08
2023-02-12T03:58:42.101Z,8.06
2023-02-12T04:01:10.142Z,8.06
2023-02-12T04:03:39.590Z,8.06
2023-02-12T04:06:16.808Z,8.05
2023-02-12T04:08:44.674Z,8.04
2023-02-12T04:11:17.817Z,8.06
2023-02-12T04:13:48.675Z,7.94
2023-02-12T04:16:21.208Z,7.93
2023-02-12T04:18:50.711Z,8.02
2023-02-12T04:21:23.804Z,8.02
2023-02-12T04:23:56.191Z,7.97
2023-02-12T04:26:25.747Z,7.93
2023-02-12T04:29:09.428Z,7.92
2023-02-12T04:31:39.711Z,7.79
2023-02-12T04:34:11.347Z,7.87
2023-02-12T04:36:42.932Z,7.85
2023-02-12T04:39:12.184Z,7.80
2023-02-12T04:41:40.442Z,7.83
2023-02-12T04:44:18.274Z,7.83
2023-02-12T04:46:46.321Z,7.82
2023-02-12T04:49:17.320Z,7.75
2023-02-12T04:51:45.241Z,7.78
2023-02-12T04:54:13.123Z,7.77
2023-02-12T04:56:40.983Z,7.77
2023-02-12T04:59:09.442Z,7.76
2023-02-12T05:01:37.575Z,7.79
2023-02-12T05:04:05.863Z,7.78
2023-02-12T05:06:35.903Z,7.80
2023-02-12T05:09:04.069Z,7.79
2023-02-12T05:11:32.011Z,7.77
2023-02-12T05:13:59.971Z,7.75
2023-02-12T05:16:27.909Z,7.63
2023-02-12T05:18:55.825Z,7.70
2023-02-12T05:21:23.684Z,7.68
2023-02-12T05:23:52.955Z,7.68
2023-02-12T05:26:21.651Z,7.72
2023-02-12T05:28:49.551Z,7.75
2023-02-12T05:31:21.504Z,7.82
2023-02-12T05:33:49.882Z,7.91
2023-02-12T05:36:18.672Z,7.90
2023-02-12T05:38:46.595Z,8.06
2023-02-12T05:41:16.570Z,8.15
2023-02-12T05:43:45.250Z,8.21
2023-02-12T05:46:14.107Z,8.28
2023-02-12T05:48:42.054Z,8.35
2023-02-12T05:51:10.987Z,8.41
2023-02-12T05:53:38.955Z,8.42
2023-02-12T05:56:11.906Z,8.52
2023-02-12T05:58:41.706Z,8.51
2023-02-12T06:01:13.754Z,8.47
2023-02-12T06:03:41.740Z,8.43
2023-02-12T06:06:09.649Z,8.41
2023-02-12T06:08:37.529Z,8.42
2023-02-12T06:11:07.494Z,8.50
2023-02-12T06:13:35.382Z,8.55
2023-02-12T06:16:04.984Z,8.63
2023-02-12T06:18:32.923Z,8.73
2023-02-12T06:21:00.863Z,8.83
2023-02-12T06:23:28.805Z,8.89
2023-02-12T06:25:57.649Z,8.91
2023-02-12T06:28:25.848Z,9.04
2023-02-12T06:30:53.839Z,9.11
2023-02-12T06:33:23.202Z,9.17
2023-02-12T06:35:51.084Z,9.23
2023-02-12T06:38:18.958Z,9.28
2023-02-12T06:40:46.822Z,9.38
2023-02-12T06:43:14.710Z,9.47
2023-02-12T06:45:42.585Z,9.54
2023-02-12T06:48:10.506Z,9.56
2023-02-12T06:50:39.817Z,9.59
2023-02-12T06:53:07.711Z,9.61
2023-02-12T06:55:35.997Z,9.62
2023-02-12T06:58:03.886Z,9.63
2023-02-12T07:00:31.929Z,9.65
2023-02-12T07:02:59.811Z,9.68
2023-02-12T07:05:27.760Z,9.73
2023-02-12T07:07:57.025Z,9.76
2023-02-12T07:10:24.888Z,9.79
2023-02-12T07:12:52.777Z,9.84
2023-02-12T07:15:20.643Z,9.89
2023-02-12T07:17:48.530Z,9.94
2023-02-12T07:20:16.519Z,9.98
2023-02-12T07:22:44.767Z,10.04
2023-02-12T07:25:14.102Z,10.09
2023-02-12T07:27:42.031Z,10.11
2023-02-12T07:30:10.824Z,10.15
2023-02-12T07:32:38.719Z,10.16
2023-02-12T07:35:07.143Z,10.23
2023-02-12T07:37:35.284Z,10.24
2023-02-12T07:40:03.249Z,10.32
2023-02-12T07:42:32.803Z,10.37
2023-02-12T07:45:00.750Z,10.40
2023-02-12T07:47:28.669Z,10.42
2023-02-12T07:49:56.763Z,10.42
2023-02-12T07:52:24.630Z,10.42
2023-02-12T07:54:52.505Z,10.42
2023-02-12T07:57:20.366Z,10.42
2023-02-12T07:59:49.654Z,10.44
2023-02-12T08:02:17.645Z,10.49
2023-02-12T08:04:45.700Z,10.51
2023-02-12T08:07:13.688Z,10.60
2023-02-12T08:09:41.676Z,10.64
2023-02-12T08:12:09.616Z,10.68
2023-02-12T08:14:37.530Z,10.74
2023-02-12T08:17:08.381Z,10.81
2023-02-12T08:19:36.549Z,10.85
2023-02-12T08:22:06.477Z,10.87
2023-02-12T08:24:34.408Z,10.91
2023-02-12T08:27:02.477Z,11.00
2023-02-12T08:29:30.971Z,11.07
2023-02-12T08:31:59.764Z,11.14
2023-02-12T08:34:29.867Z,11.22
2023-02-12T08:36:57.917Z,11.31
2023-02-12T08:39:28.467Z,11.39
2023-02-12T08:41:56.507Z,11.50
2023-02-12T08:44:24.437Z,11.60
2023-02-12T08:46:53.178Z,11.61
2023-02-12T08:49:22.164Z,11.72
2023-02-12T08:51:52.423Z,11.75
2023-02-12T08:54:23.805Z,11.64
2023-02-12T08:56:51.795Z,11.83
2023-02-12T08:59:19.702Z,11.92
2023-02-12T09:01:47.581Z,11.96
2023-02-12T09:04:17.947Z,12.00
2023-02-12T09:06:46.070Z,12.04
2023-02-12T09:09:15.582Z,12.10
2023-02-12T09:11:43.535Z,12.17
2023-02-12T09:14:12.807Z,12.26
2023-02-12T09:16:40.819Z,12.34
2023-02-12T09:19:08.870Z,12.40
2023-02-12T09:21:36.747Z,12.49
2023-02-12T09:24:04.898Z,12.55
2023-02-12T09:26:34.257Z,12.66
2023-02-12T09:29:02.942Z,12.66
2023-02-12T09:31:31.475Z,12.79
2023-02-12T09:34:00.691Z,12.84
2023-02-12T09:36:28.578Z,12.90
2023-02-12T09:38:56.645Z,12.93
2023-02-12T09:42:12.925Z,12.97
2023-02-12T09:44:45.480Z,12.99
2023-02-12T09:47:14.893Z,13.07
2023-02-12T09:49:53.350Z,13.15
2023-02-12T09:52:23.460Z,13.27
2023-02-12T09:54:51.375Z,13.36
2023-02-12T09:57:20.917Z,13.42
2023-02-12T09:59:52.571Z,13.46
2023-02-12T10:02:20.906Z,13.49
2023-02-12T10:05:00.551Z,13.52
2023-02-12T10:07:36.940Z,13.55
2023-02-12T10:10:16.607Z,13.59
2023-02-12T10:12:50.931Z,13.67
2023-02-12T10:15:27.181Z,13.69
2023-02-12T10:17:57.507Z,13.78
2023-02-12T10:20:56.609Z,13.83
2023-02-12T10:23:47.228Z,13.85
2023-02-12T10:26:19.762Z,13.85
2023-02-12T10:28:47.685Z,13.88
2023-02-12T10:31:20.785Z,13.98
2023-02-12T10:33:50.039Z,14.03
2023-02-12T10:36:25.204Z,14.03
2023-02-12T10:38:54.569Z,14.16
2023-02-12T10:41:22.530Z,14.14
2023-02-12T10:43:50.450Z,14.16
2023-02-12T10:46:19.817Z,14.14
2023-02-12T10:48:49.304Z,14.13
2023-02-12T10:51:36.811Z,14.12
2023-02-12T10:54:32.364Z,14.12
2023-02-12T10:57:00.294Z,14.12
2023-02-12T10:59:28.177Z,14.11
2023-02-12T11:01:57.658Z,14.19
2023-02-12T11:04:27.444Z,14.25
2023-02-12T11:06:59.329Z,14.31
2023-02-12T11:09:30.611Z,14.37
2023-02-12T11:11:58.631Z,14.49
2023-02-12T11:14:26.654Z,14.63
2023-02-12T11:16:55.647Z,14.81
2023-02-12T11:19:25.725Z,14.85
2023-02-12T11:21:53.614Z,14.78
2023-02-12T11:24:31.445Z,14.90
2023-02-12T11:27:13.035Z,14.98
2023-02-12T11:29:41.000Z,15.08
2023-02-12T11:32:09.771Z,15.19
2023-02-12T11:34:39.264Z,15.35
2023-02-12T11:37:08.366Z,15.45
2023-02-12T11:39:37.231Z,15.59
2023-02-12T11:42:06.774Z,15.70
2023-02-12T11:44:36.336Z,15.77
2023-02-12T11:47:08.844Z,15.86
2023-02-12T11:49:44.237Z,16.04
2023-02-12T11:52:19.638Z,16.15
2023-02-12T11:54:47.832Z,16.25
2023-02-12T11:57:36.629Z,16.26
2023-02-12T12:00:06.439Z,16.25
2023-02-12T12:02:38.295Z,16.27
2023-02-12T12:05:10.662Z,16.29
2023-02-12T12:07:38.630Z,16.25
2023-02-12T12:10:08.735Z,16.33
2023-02-12T12:12:39.255Z,16.33
2023-02-12T12:15:25.849Z,16.37
2023-02-12T12:18:13.295Z,16.46
2023-02-12T12:20:44.868Z,16.34
2023-02-12T12:23:15.478Z,16.49
2023-02-12T12:25:45.061Z,16.70
2023-02-12T12:28:31.798Z,16.63
2023-02-12T12:31:03.689Z,16.66
2023-02-12T12:33:38.572Z,16.81
2023-02-12T12:36:51.856Z,16.93
2023-02-12T12:39:28.153Z,16.85
2023-02-12T12:42:23.632Z,16.59
2023-02-12T12:45:00.672Z,16.17
2023-02-12T12:47:30.667Z,16.21
2023-02-12T12:50:06.220Z,16.35
2023-02-12T12:52:51.984Z,16.60
2023-02-12T12:55:32.824Z,16.47
2023-02-12T12:58:02.548Z,16.83
2023-02-12T13:00:42.781Z,17.45
2023-02-12T13:03:41.112Z,18.16
2023-02-12T13:06:23.989Z,18.82
2023-02-12T13:09:11.436Z,19.41
2023-02-12T13:11:44.288Z,19.82
2023-02-12T13:14:29.927Z,20.03
2023-02-12T13:17:01.452Z,19.98
2023-02-12T13:19:35.661Z,19.75
2023-02-12T13:22:05.216Z,19.79
2023-02-12T13:24:35.597Z,19.99
2023-02-12T13:27:05.724Z,20.25
2023-02-12T13:29:35.606Z,20.33
2023-02-12T13:32:05.040Z,20.63
2023-02-12T13:34:33.349Z,20.72
2023-02-12T13:37:01.916Z,20.68
2023-02-12T13:39:33.339Z,20.59
2023-02-12T13:42:09.762Z,20.55
2023-02-12T13:44:39.738Z,20.43
2023-02-12T13:47:10.774Z,20.03
2023-02-12T13:49:42.758Z,19.69
2023-02-12T13:52:12.543Z,19.63
2023-02-12T13:54:52.601Z,19.59
2023-02-12T13:57:21.899Z,19.90
2023-02-12T13:59:50.489Z,20.17
2023-02-12T14:02:29.850Z,20.42
2023-02-12T14:04:59.887Z,20.65
2023-02-12T14:07:42.503Z,20.73
2023-02-12T14:10:22.116Z,20.91
2023-02-12T14:12:51.394Z,20.89
2023-02-12T14:15:29.712Z,20.39
2023-02-12T14:17:57.966Z,20.08
2023-02-12T14:20:28.159Z,19.75
2023-02-12T14:23:24.214Z,19.42
2023-02-12T14:26:10.062Z,18.75
2023-02-12T14:28:48.927Z,18.52
2023-02-12T14:31:31.896Z,18.58
2023-02-12T14:34:49.508Z,19.00
2023-02-12T14:37:38.272Z,19.69
2023-02-12T14:40:44.173Z,20.34
2023-02-12T14:43:32.648Z,20.88
2023-02-12T14:46:40.465Z,21.10
2023-02-12T14:49:19.507Z,21.21
2023-02-12T14:51:52.308Z,21.15
2023-02-12T14:54:31.338Z,21.20
2023-02-12T14:57:01.592Z,21.15
2023-02-12T14:59:29.498Z,20.96
2023-02-12T15:01:58.863Z,20.81
2023-02-12T15:04:27.561Z,20.67
2023-02-12T15:06:58.288Z,20.64
2023-02-12T15:09:29.747Z,20.64
2023-02-12T15:12:01.890Z,20.61
2023-02-12T15:14:31.936Z,20.71
2023-02-12T15:17:03.593Z,20.51
2023-02-12T15:19:38.815Z,20.59
2023-02-12T15:22:18.155Z,20.02
2023-02-12T15:24:46.942Z,19.79
2023-02-12T15:27:15.327Z,19.33
2023-02-12T15:29:44.092Z,18.59
2023-02-12T15:32:17.532Z,17.98
2023-02-12T15:34:45.584Z,17.40
2023-02-12T15:37:19.286Z,16.92
2023-02-12T15:39:48.044Z,16.56
2023-02-12T15:42:30.309Z,16.26
2023-02-12T15:45:19.654Z,15.96
2023-02-12T15:47:59.163Z,15.58
2023-02-12T15:50:27.134Z,15.42
2023-02-12T15:52:55.264Z,15.22
2023-02-12T15:55:25.204Z,15.02
2023-02-12T15:57:53.820Z,14.83
2023-02-12T16:00:30.149Z,14.72
2023-02-12T16:02:59.478Z,14.52
2023-02-12T16:05:27.570Z,14.45
2023-02-12T16:07:55.608Z,14.38
2023-02-12T16:10:23.684Z,14.25
2023-02-12T16:12:51.766Z,14.18
2023-02-12T16:15:27.516Z,14.07
2023-02-12T16:17:56.498Z,14.00
2023-02-12T16:20:27.206Z,13.89
2023-02-12T16:22:55.363Z,13.83
2023-02-12T16:25:24.611Z,13.75
2023-02-12T16:27:57.638Z,13.64
2023-02-12T16:30:27.798Z,13.59
2023-02-12T16:32:56.188Z,13.50
2023-02-12T16:35:30.311Z,13.47
2023-02-12T16:38:03.030Z,13.39
2023-02-12T16:40:35.864Z,13.33
2023-02-12T16:43:26.537Z,13.26
2023-02-12T16:46:04.188Z,13.21
2023-02-12T16:48:33.575Z,13.17
2023-02-12T16:51:06.106Z,13.11
2023-02-12T16:53:43.094Z,13.07
2023-02-12T16:56:15.748Z,13.00
2023-02-12T16:58:46.485Z,13.00
2023-02-12T17:01:18.076Z,13.00
2023-02-12T17:03:47.718Z,12.93
2023-02-12T17:06:17.762Z,12.91
2023-02-12T17:08:45.644Z,12.88
2023-02-12T17:11:14.266Z,12.79
2023-02-12T17:13:42.127Z,12.84
2023-02-12T17:16:12.699Z,12.83
2023-02-12T17:18:42.507Z,12.76
2023-02-12T17:21:15.977Z,12.73
2023-02-12T17:23:45.290Z,12.64
2023-02-12T17:26:13.246Z,12.56
2023-02-12T17:28:41.475Z,12.47
2023-02-12T17:31:09.546Z,12.41
2023-02-12T17:33:37.471Z,12.35
2023-02-12T17:36:06.210Z,12.32
2023-02-12T17:38:36.153Z,12.26
2023-02-12T17:41:09.440Z,12.23
2023-02-12T17:43:37.310Z,12.20
2023-02-12T17:46:09.933Z,12.11
2023-02-12T17:48:37.968Z,12.09
2023-02-12T17:51:06.304Z,12.06
2023-02-12T17:53:34.183Z,12.05
2023-02-12T17:56:02.191Z,11.95
2023-02-12T17:58:32.006Z,11.93
2023-02-12T18:01:05.515Z,11.95
2023-02-12T18:03:33.465Z,11.92
2023-02-12T18:06:01.386Z,11.90
2023-02-12T18:08:29.404Z,11.74
2023-02-12T18:10:57.693Z,11.84
2023-02-12T18:13:25.765Z,11.83
2023-02-12T18:15:55.323Z,11.82
2023-02-12T18:18:23.202Z,11.80
2023-02-12T18:20:51.126Z,11.78
2023-02-12T18:23:19.083Z,11.78
2023-02-12T18:25:46.941Z,11.78
2023-02-12T18:28:14.876Z,11.76
2023-02-12T18:30:43.855Z,11.76
2023-02-12T18:33:13.341Z,11.73
2023-02-12T18:35:41.823Z,11.75
2023-02-12T18:38:09.767Z,11.75
2023-02-12T18:40:40.799Z,11.74
2023-02-12T18:43:08.706Z,11.71
2023-02-12T18:45:36.601Z,11.69
2023-02-12T18:48:08.497Z,11.70
2023-02-12T18:50:37.798Z,11.71
2023-02-12T18:53:05.884Z,11.69
2023-02-12T18:55:33.769Z,11.68
2023-02-12T18:58:01.704Z,11.63
2023-02-12T19:00:29.740Z,11.64
2023-02-12T19:02:57.719Z,11.65
2023-02-12T19:05:26.338Z,11.68
2023-02-12T19:07:55.718Z,11.65
2023-02-12T19:10:23.660Z,11.65
2023-02-12T19:12:51.626Z,11.62
2023-02-12T19:15:19.498Z,11.63
2023-02-12T19:17:47.402Z,11.58
2023-02-12T19:20:16.875Z,11.60
2023-02-12T19:22:46.412Z,11.60
2023-02-12T19:25:15.877Z,11.56
2023-02-12T19:27:43.738Z,11.59
2023-02-12T19:30:12.514Z,11.62
2023-02-12T19:32:40.428Z,11.61
2023-02-12T19:35:08.454Z,11.57
2023-02-12T19:37:36.327Z,11.67
2023-02-12T19:40:04.230Z,11.69
2023-02-12T19:42:33.850Z,11.67
2023-02-12T19:45:01.849Z,11.68
2023-02-12T19:47:29.765Z,11.67
2023-02-12T19:49:57.663Z,11.67
2023-02-12T19:52:25.555Z,11.66
2023-02-12T19:54:53.637Z,11.66
2023-02-12T19:57:21.530Z,11.62
2023-02-12T19:59:50.775Z,11.68
2023-02-12T20:02:18.742Z,11.69
2023-02-12T20:04:47.329Z,11.63
2023-02-12T20:07:15.281Z,11.68
2023-02-12T20:09:43.166Z,11.68
2023-02-12T20:12:11.376Z,11.67
2023-02-12T20:14:39.283Z,11.66
2023-02-12T20:17:08.581Z,11.67
2023-02-12T20:19:36.465Z,11.68
2023-02-12T20:22:04.666Z,11.61
2023-02-12T20:24:33.914Z,11.61
2023-02-12T20:27:02.254Z,11.58
2023-02-12T20:29:30.133Z,11.60
2023-02-12T20:31:58.096Z,11.60
2023-02-12T20:34:27.434Z,11.59
2023-02-12T20:36:55.322Z,11.60
2023-02-12T20:39:23.377Z,11.62
2023-02-12T20:41:51.294Z,11.65
2023-02-12T20:44:21.315Z,11.70
2023-02-12T20:46:52.492Z,11.72
2023-02-12T20:49:23.925Z,11.78
2023-02-12T20:51:53.285Z,11.80
2023-02-12T20:54:21.216Z,11.79
2023-02-12T20:56:49.762Z,11.83
2023-02-12T20:59:18.495Z,11.78
2023-02-12T21:01:46.919Z,11.71
2023-02-12T21:04:16.817Z,11.65
2023-02-12T21:06:45.663Z,11.63
2023-02-12T21:09:15.084Z,11.60
2023-02-12T21:11:45.594Z,11.56
2023-02-12T21:14:23.589Z,11.56
2023-02-12T21:16:52.389Z,11.57
2023-02-12T21:19:20.348Z,11.49
2023-02-12T21:21:48.241Z,11.47
2023-02-12T21:24:19.720Z,11.39
2023-02-12T21:26:47.583Z,11.40
2023-02-12T21:29:15.533Z,11.38
2023-02-12T21:31:44.578Z,11.36
2023-02-12T21:34:14.101Z,11.33
2023-02-12T21:36:43.058Z,11.29
2023-02-12T21:39:12.870Z,11.28
2023-02-12T21:41:42.976Z,11.24
2023-02-12T21:44:12.419Z,11.29
2023-02-12T21:46:40.339Z,11.26
2023-02-12T21:49:08.216Z,11.28
2023-02-12T21:51:39.114Z,11.28
2023-02-12T21:54:08.147Z,11.29
2023-02-12T21:56:37.033Z,11.27
2023-02-12T21:59:06.314Z,11.27
2023-02-12T22:01:35.323Z,11.27
2023-02-12T22:04:03.203Z,11.26
2023-02-12T22:06:31.094Z,11.25
2023-02-12T22:09:02.540Z,11.25
2023-02-12T22:11:30.424Z,11.24
2023-02-12T22:13:58.305Z,11.23
2023-02-12T22:16:28.644Z,11.25
2023-02-12T22:18:57.383Z,11.23
2023-02-12T22:21:26.247Z,11.24
2023-02-12T22:23:54.568Z,11.22
2023-02-12T22:26:23.309Z,11.01
2023-02-12T22:28:51.907Z,11.23
2023-02-12T22:31:21.935Z,11.24
2023-02-12T22:33:51.712Z,11.20
2023-02-12T22:36:21.871Z,11.22
2023-02-12T22:38:49.813Z,11.21
2023-02-12T22:41:17.687Z,11.17
2023-02-12T22:43:45.649Z,11.18
2023-02-12T22:46:14.105Z,10.90
2023-02-12T22:48:42.040Z,11.19
2023-02-12T22:51:14.111Z,11.18
2023-02-12T22:53:42.020Z,11.16
2023-02-12T22:56:10.131Z,11.17
2023-02-12T22:58:38.685Z,11.13
2023-02-12T23:01:07.272Z,11.13
2023-02-12T23:03:37.378Z,11.16
2023-02-12T23:06:06.058Z,11.10
2023-02-12T23:08:35.425Z,11.13
2023-02-12T23:11:03.311Z,11.10
2023-02-12T23:13:31.319Z,11.07
2023-02-12T23:15:59.365Z,11.09
2023-02-12T23:18:27.342Z,11.10
2023-02-12T23:20:55.751Z,11.11
2023-02-12T23:23:23.830Z,11.10
2023-02-12T23:25:54.496Z,11.10
2023-02-12T23:28:22.545Z,11.06
2023-02-12T23:30:50.691Z,11.03
2023-02-12T23:33:19.166Z,11.04
2023-02-12T23:35:47.205Z,11.05
2023-02-12T23:38:15.123Z,11.02
2023-02-12T23:40:43.105Z,11.04
2023-02-12T23:43:12.406Z,11.00
2023-02-12T23:45:40.344Z,11.01
2023-02-12T23:48:08.254Z,11.04
2023-02-12T23:50:36.196Z,11.04
2023-02-12T23:53:04.103Z,11.04
2023-02-12T23:55:32.011Z,11.08
2023-02-12T23:57:59.859Z,11.07
